Time;durP1;ratioP1;P1;durP2;ratioP2;P2;SDS_P1;SDS_P2;PMS_P1;PMS_P2;Temp;Humidity;BMP_temperature;BMP_pressure;BME280_temperature;BME280_humidity;BME280_pressure;Samples;Min_cycle;Max_cycle;Signal;HPM_P1;HPM_P2
2022/08/04 00:00:28;;;;;;;3.58;2.75;;;;;;;23.88;47.58;100917.03;5052196;28;20451;-71
2022/08/04 00:03:11;;;;;;;4.75;2.83;;;;;;;23.81;47.40;100913.31;5062554;28;20048;-69
2022/08/04 00:05:52;;;;;;;6.53;2.85;;;;;;;23.67;47.78;100911.25;5049822;28;20107;-68
2022/08/04 00:08:31;;;;;;;4.68;2.70;;;;;;;23.62;47.43;100911.72;5061876;28;20063;-68
2022/08/04 00:11:00;;;;;;;5.63;2.85;;;;;;;23.20;49.26;100916.94;5043266;28;20501;-68
2022/08/04 00:13:30;;;;;;;6.95;2.75;;;;;;;23.00;49.67;100914.59;5053499;28;20487;-69
2022/08/04 00:15:59;;;;;;;4.75;2.83;;;;;;;23.02;49.83;100913.44;5064229;28;20555;-69
2022/08/04 00:18:33;;;;;;;3.88;2.83;;;;;;;23.20;50.60;100911.59;5064554;28;20092;-69
2022/08/04 00:21:06;;;;;;;6.30;3.00;;;;;;;23.36;50.10;100902.81;5064654;28;20082;-68
2022/08/04 00:23:33;;;;;;;;;;;;;;;23.41;49.86;100902.34;5064984;28;20068;-68
2022/08/04 00:26:00;;;;;;;5.00;3.03;;;;;;;23.34;50.47;100906.66;5052750;28;20292;-68
2022/08/04 00:28:27;;;;;;;3.45;2.85;;;;;;;23.45;49.95;100898.41;5043417;28;20439;-68
2022/08/04 00:30:55;;;;;;;6.72;3.30;;;;;;;23.45;49.70;100895.72;5050301;28;20040;-68
2022/08/04 00:33:22;;;;;;;9.35;2.83;;;;;;;23.44;49.77;100894.03;5061254;28;20052;-68
2022/08/04 00:35:50;;;;;;;4.45;2.90;;;;;;;23.44;49.15;100892.19;5062460;28;20048;-68
2022/08/04 00:38:18;;;;;;;4.97;3.28;;;;;;;23.39;49.66;100901.69;5060255;28;20053;-68
2022/08/04 00:40:53;;;;;;;5.00;2.83;;;;;;;23.50;49.43;100896.09;5061283;28;20487;-68
2022/08/04 00:43:28;;;;;;;4.45;2.85;;;;;;;23.51;50.00;100903.09;5063540;28;20625;-68
2022/08/04 00:46:14;;;;;;;7.05;3.28;;;;;;;23.41;50.12;100897.00;5042789;28;20114;-68
2022/08/04 00:49:17;;;;;;;9.07;3.00;;;;;;;23.42;50.35;100901.41;5063160;28;20037;-68
2022/08/04 00:51:49;;;;;;;5.80;3.22;;;;;;;23.50;50.27;100901.44;5042229;28;20040;-68
2022/08/04 00:54:26;;;;;;;4.90;3.10;;;;;;;23.53;49.96;100903.81;5063371;28;20048;-68
2022/08/04 00:57:09;;;;;;;4.38;3.20;;;;;;;23.54;50.03;100900.13;5063830;28;20563;-68
2022/08/04 00:59:43;;;;;;;;;;;;;;;23.47;50.23;100907.09;5061481;28;20066;-68
2022/08/04 01:02:17;;;;;;;4.82;3.15;;;;;;;23.48;50.47;100909.63;5062448;28;19978;-68
2022/08/04 01:04:50;;;;;;;4.95;3.00;;;;;;;23.52;50.27;100910.16;5056382;28;20074;-68
2022/08/04 01:07:43;;;;;;;7.35;3.30;;;;;;;23.48;49.08;100914.13;5068130;28;20102;-68
2022/08/04 01:10:19;;;;;;;6.30;3.30;;;;;;;23.54;48.49;100905.50;5061602;28;20048;-68
2022/08/04 01:13:12;;;;;;;4.88;2.83;;;;;;;23.43;48.57;100897.72;5053213;28;20045;-68
2022/08/04 01:15:49;;;;;;;5.07;2.88;;;;;;;23.36;48.33;100904.66;5049288;28;20098;-68
2022/08/04 01:18:21;;;;;;;8.20;2.75;;;;;;;23.28;48.45;100903.59;5068564;28;20480;-68
2022/08/04 01:21:02;;;;;;;6.75;2.90;;;;;;;23.12;48.59;100902.66;5067400;28;20048;-68
2022/08/04 01:23:55;;;;;;;4.57;2.88;;;;;;;23.01;48.76;100903.75;5068586;28;20106;-68
2022/08/04 01:26:43;;;;;;;6.82;2.70;;;;;;;22.66;50.06;100895.72;5067070;28;20106;-68
2022/08/04 01:29:11;;;;;;;10.23;3.30;;;;;;;22.18;51.81;100901.41;5067273;28;20048;-69
2022/08/04 01:31:50;;;;;;;6.13;3.03;;;;;;;21.77;53.05;100902.69;5067292;28;20048;-69
2022/08/04 01:34:20;;;;;;;9.18;3.15;;;;;;;21.53;54.13;100900.56;5065696;28;20097;-69
2022/08/04 01:36:49;;;;;;;4.50;3.13;;;;;;;22.05;52.90;100895.59;5067507;28;20047;-69
2022/08/04 01:42:02;;;;;;;9.90;3.25;;;;;;;22.05;52.32;100895.59;5056077;28;20124;-70
2022/08/04 01:44:31;;;;;;;7.05;2.85;;;;;;;22.15;52.42;100893.69;5064613;28;20102;-69
2022/08/04 01:47:00;;;;;;;6.03;3.30;;;;;;;22.07;52.81;100890.91;5067382;28;20044;-69
2022/08/04 01:49:29;;;;;;;3.15;2.67;;;;;;;21.96;53.36;100894.63;5065617;28;20048;-70
2022/08/04 01:51:56;;;;;;;6.75;3.50;;;;;;;21.84;53.55;100901.13;5067297;28;20048;-69
2022/08/04 01:54:23;;;;;;;5.43;3.42;;;;;;;21.73;54.25;100890.63;5067427;28;20049;-69
2022/08/04 01:56:50;;;;;;;7.20;3.35;;;;;;;21.78;54.48;100896.38;5067060;28;20086;-69
2022/08/04 01:59:19;;;;;;;9.30;3.88;;;;;;;21.61;55.51;100882.00;5050377;28;20073;-69
2022/08/04 02:01:47;;;;;;;6.60;3.30;;;;;;;21.51;56.04;100891.00;5064814;28;20048;-69
2022/08/04 02:04:15;;;;;;;4.20;3.00;;;;;;;21.54;55.84;100888.06;5066660;28;20102;-69
2022/08/04 02:06:49;;;;;;;5.70;3.60;;;;;;;21.70;55.18;100885.59;5064642;28;20408;-69
2022/08/04 02:09:23;;;;;;;5.88;3.10;;;;;;;21.71;55.24;100888.13;5066823;28;20096;-69
2022/08/04 02:12:05;;;;;;;7.50;3.63;;;;;;;21.91;54.77;100883.59;5055913;28;20044;-69
2022/08/04 02:14:41;;;;;;;;;;;;;;;21.92;55.20;100882.56;5066889;28;20521;-69
2022/08/04 02:17:12;;;;;;;7.15;4.00;;;;;;;21.76;55.31;100882.34;5067119;28;19920;-69
2022/08/04 02:19:53;;;;;;;8.75;3.38;;;;;;;21.58;55.74;100876.94;5067649;28;20090;-70
2022/08/04 02:22:22;;;;;;;7.47;3.92;;;;;;;21.25;57.15;100886.31;5067441;28;20044;-70
2022/08/04 02:24:50;;;;;;;5.55;3.70;;;;;;;21.43;56.26;100872.25;5053936;28;20099;-70
2022/08/04 02:27:24;;;;;;;5.90;3.72;;;;;;;21.61;55.83;100875.81;5046215;28;20048;-70
2022/08/04 02:29:58;;;;;;;6.28;3.33;;;;;;;21.75;54.97;100881.50;5047458;28;20691;-70
2022/08/04 02:32:29;;;;;;;9.98;3.88;;;;;;;21.85;54.75;100868.94;5066551;28;20173;-70
2022/08/04 02:35:06;;;;;;;12.80;4.00;;;;;;;21.87;54.52;100875.97;5067483;28;20045;-70
2022/08/04 02:37:33;;;;;;;7.70;3.50;;;;;;;21.90;54.49;100879.19;5067349;28;20045;-70
2022/08/04 02:40:03;;;;;;;7.22;3.92;;;;;;;21.69;55.18;100875.94;5065153;28;20045;-70
2022/08/04 02:42:30;;;;;;;5.45;3.80;;;;;;;21.14;56.98;100875.81;5050323;28;20099;-70
2022/08/04 02:44:57;;;;;;;6.03;3.65;;;;;;;20.59;59.37;100882.69;5065049;28;20555;-70
2022/08/04 02:47:27;;;;;;;6.70;3.75;;;;;;;20.56;59.18;100882.13;5067421;28;20044;-70
2022/08/04 02:49:56;;;;;;;5.95;3.78;;;;;;;20.30;59.91;100881.84;5063523;28;20094;-70
2022/08/04 02:52:24;;;;;;;7.20;3.88;;;;;;;20.61;58.84;100877.25;5066638;28;20056;-70
2022/08/04 02:54:53;;;;;;;4.65;3.30;;;;;;;20.73;58.32;100874.28;5067209;28;20044;-69
2022/08/04 02:57:23;;;;;;;6.50;3.78;;;;;;;20.95;57.87;100873.16;5064754;28;20037;-69
2022/08/04 03:00:08;;;;;;;7.70;3.85;;;;;;;20.78;58.68;100868.53;5063031;28;20090;-70
2022/08/04 03:02:54;;;;;;;5.45;3.53;;;;;;;21.13;57.53;100876.81;5064349;28;20044;-70
2022/08/04 03:05:25;;;;;;;7.90;4.03;;;;;;;21.07;57.51;100866.66;5066195;28;20481;-70
2022/08/04 03:08:09;;;;;;;6.60;3.70;;;;;;;21.39;56.15;100868.19;5065151;28;20503;-70
2022/08/04 03:10:57;;;;;;;6.57;4.93;;;;;;;21.43;56.21;100870.41;5065088;28;20388;-69
2022/08/04 03:13:52;;;;;;;9.10;4.05;;;;;;;21.54;55.58;100869.38;5055998;28;20049;-69
2022/08/04 03:16:52;;;;;;;5.50;3.80;;;;;;;21.73;55.76;100867.47;5066982;28;20045;-69
2022/08/04 03:19:36;;;;;;;6.22;3.70;;;;;;;21.77;55.47;100876.84;5063624;28;20048;-69
2022/08/04 03:22:27;;;;;;;8.90;4.15;;;;;;;21.58;56.12;100870.78;5067390;28;20036;-69
2022/08/04 03:25:37;;;;;;;7.07;4.05;;;;;;;21.67;55.81;100868.06;5064146;28;20097;-69
2022/08/04 03:28:31;;;;;;;6.45;4.03;;;;;;;21.87;55.48;100866.16;5063994;28;20181;-69
2022/08/04 03:31:16;;;;;;;6.13;4.00;;;;;;;21.57;56.78;100866.44;5064863;28;20504;-69
2022/08/04 03:34:01;;;;;;;8.00;3.63;;;;;;;21.16;57.50;100868.53;5066277;28;20072;-69
2022/08/04 03:36:56;;;;;;;6.53;3.70;;;;;;;21.13;57.56;100868.81;5064221;28;20044;-69
2022/08/04 03:39:38;;;;;;;7.47;3.97;;;;;;;20.96;58.07;100865.97;5065450;28;20568;-69
2022/08/04 03:42:30;;;;;;;6.13;3.85;;;;;;;20.86;58.28;100868.69;5059440;28;20048;-69
2022/08/04 03:45:23;;;;;;;8.35;3.92;;;;;;;21.25;57.37;100870.31;5057283;28;20045;-69
2022/08/04 03:48:14;;;;;;;7.30;3.78;;;;;;;21.10;57.58;100861.03;5064085;28;20044;-70
2022/08/04 03:54:22;;;;;;;8.68;4.22;;;;;;;21.20;57.17;100872.59;5040091;28;20503;-69
2022/08/04 03:57:06;;;;;;;5.00;4.00;;;;;;;21.01;57.87;100872.59;5052060;28;20075;-69
2022/08/04 04:00:03;;;;;;;5.32;4.00;;;;;;;21.11;57.36;100872.59;5024130;28;20072;-69
2022/08/04 04:02:50;;;;;;;7.13;4.05;;;;;;;21.07;57.98;100863.16;5021646;28;20059;-69
2022/08/04 04:06:06;;;;;;;6.50;4.03;;;;;;;21.13;57.48;100870.63;5023183;28;21743;-69
2022/08/04 04:09:09;;;;;;;6.88;4.32;;;;;;;20.98;58.25;100867.53;5016816;28;20049;-69
2022/08/04 04:11:51;;;;;;;7.78;3.92;;;;;;;21.01;58.05;100874.41;5035613;28;20041;-69
2022/08/04 04:14:41;;;;;;;7.80;4.35;;;;;;;20.69;59.38;100874.72;5043138;28;20060;-68
2022/08/04 04:17:29;;;;;;;12.23;3.65;;;;;;;20.44;59.84;100873.44;5038077;28;20061;-68
2022/08/04 04:20:25;;;;;;;5.38;4.15;;;;;;;20.69;59.35;100878.25;5030702;28;20056;-69
2022/08/04 04:23:03;;;;;;;6.90;3.90;;;;;;;20.86;59.47;100868.69;5026148;28;20691;-69
2022/08/04 04:25:39;;;;;;;10.00;4.00;;;;;;;20.83;59.05;100875.13;5017394;28;20044;-68
2022/08/04 04:28:27;;;;;;;7.95;4.10;;;;;;;21.31;58.33;100866.22;4972294;28;20075;-68
2022/08/04 04:31:03;;;;;;;10.02;4.55;;;;;;;21.45;57.66;100859.59;4976213;28;20052;-68
2022/08/04 04:33:43;;;;;;;14.95;4.53;;;;;;;21.79;56.14;100868.72;4969631;28;20049;-68
2022/08/04 04:36:18;;;;;;;5.10;3.80;;;;;;;21.78;56.68;100867.88;4976057;28;20096;-69
2022/08/04 04:39:00;;;;;;;4.78;3.78;;;;;;;21.78;56.10;100869.69;4982369;28;20072;-69
2022/08/04 04:42:01;;;;;;;8.18;3.85;;;;;;;22.05;55.58;100871.56;4972148;28;20145;-68
2022/08/04 04:44:49;;;;;;;4.32;3.72;;;;;;;21.98;56.43;100863.31;4995501;28;20090;-67
2022/08/04 04:47:23;;;;;;;7.15;4.13;;;;;;;22.14;56.69;100875.97;5027657;28;20136;-68
2022/08/04 04:49:59;;;;;;;8.80;3.78;;;;;;;22.18;57.54;100870.19;5037414;28;20476;-70
2022/08/04 04:52:30;;;;;;;6.20;4.50;;;;;;;22.32;55.26;100875.00;5037238;28;20824;-69
2022/08/04 04:55:02;;;;;;;8.60;4.65;;;;;;;22.21;56.05;100877.91;5038481;28;20073;-69
2022/08/04 04:57:35;;;;;;;5.28;4.05;;;;;;;22.47;55.49;100874.50;5043835;28;20049;-69
2022/08/04 05:00:07;;;;;;;7.38;4.10;;;;;;;22.49;55.67;100872.50;5044301;28;20077;-69
2022/08/04 05:03:18;;;;;;;5.13;3.80;;;;;;;22.75;55.27;100870.78;5061516;28;20156;-69
2022/08/04 05:06:01;;;;;;;8.13;4.72;;;;;;;22.55;57.24;100872.72;5061825;28;20797;-69
2022/08/04 05:08:51;;;;;;;10.85;4.60;;;;;;;22.76;55.36;100875.97;5060267;28;20750;-69
2022/08/04 05:11:54;;;;;;;5.40;4.15;;;;;;;22.91;56.02;100878.91;5061438;28;20048;-68
2022/08/04 05:14:28;;;;;;;6.57;4.10;;;;;;;22.97;55.27;100885.50;5033573;28;20049;-70
2022/08/04 05:17:03;;;;;;;7.95;4.22;;;;;;;23.03;54.56;100880.34;5059851;28;20044;-68
2022/08/04 05:19:41;;;;;;;7.68;4.50;;;;;;;22.75;55.86;100885.00;5059248;28;20080;-67
2022/08/04 05:22:15;;;;;;;5.20;4.40;;;;;;;23.06;56.68;100881.91;5057780;28;20150;-68
2022/08/04 05:24:44;;;;;;;5.22;4.05;;;;;;;23.09;56.35;100882.44;5057445;28;20137;-68
2022/08/04 05:27:15;;;;;;;6.65;4.20;;;;;;;23.15;56.13;100889.81;5060170;28;20106;-69
2022/08/04 05:29:50;;;;;;;6.68;4.22;;;;;;;23.47;55.24;100885.69;5058948;28;20492;-68
2022/08/04 05:32:20;;;;;;;5.82;3.85;;;;;;;23.68;54.77;100883.47;5055344;28;20044;-68
2022/08/04 05:34:51;;;;;;;5.13;3.80;;;;;;;24.11;53.79;100872.59;5052845;28;20073;-68
2022/08/04 05:37:21;;;;;;;6.68;4.70;;;;;;;24.72;52.60;100868.72;5046277;28;20079;-68
2022/08/04 05:39:53;;;;;;;8.82;5.00;;;;;;;24.97;48.84;100869.56;5057367;28;20068;-68
2022/08/04 05:42:21;;;;;;;6.63;4.85;;;;;;;25.53;46.72;100874.03;5060940;28;20462;-68
2022/08/04 05:44:49;;;;;;;6.68;4.47;;;;;;;25.72;46.73;100878.97;5058356;28;20993;-67
2022/08/04 05:47:16;;;;;;;6.25;4.20;;;;;;;25.62;46.27;100872.97;5057720;28;20492;-68
2022/08/04 05:49:44;;;;;;;11.52;4.78;;;;;;;25.68;45.83;100867.72;5058605;28;20059;-67
2022/08/04 05:52:12;;;;;;;7.50;4.13;;;;;;;25.63;46.17;100874.66;5059710;28;20044;-68
2022/08/04 05:54:40;;;;;;;5.40;4.57;;;;;;;26.45;45.49;100881.31;5054632;28;20136;-68
2022/08/04 05:57:08;;;;;;;6.15;4.00;;;;;;;26.69;43.92;100881.13;5058590;28;20052;-67
2022/08/04 05:59:39;;;;;;;7.43;3.97;;;;;;;26.99;43.45;100887.47;5059910;28;20476;-68
2022/08/04 06:02:08;;;;;;;8.07;3.80;;;;;;;27.24;42.22;100882.69;5062330;28;20076;-69
2022/08/04 06:04:37;;;;;;;4.15;3.40;;;;;;;27.59;42.37;100876.63;5064623;28;20287;-68
2022/08/04 06:07:03;;;;;;;6.25;4.03;;;;;;;27.96;40.68;100868.41;5062640;28;20048;-69
2022/08/04 06:09:30;;;;;;;12.57;3.90;;;;;;;28.37;39.89;100876.81;5061049;28;20561;-68
2022/08/04 06:12:00;;;;;;;9.48;3.92;;;;;;;27.94;39.46;100880.38;5055297;28;20090;-67
2022/08/04 06:14:30;;;;;;;7.20;4.13;;;;;;;27.82;39.95;100871.97;5063548;28;20612;-67
2022/08/04 06:16:58;;;;;;;9.75;3.95;;;;;;;28.61;38.90;100877.44;5062255;28;20512;-67
2022/08/04 06:19:29;;;;;;;6.82;4.35;;;;;;;28.44;40.44;100880.41;5055533;28;20048;-68
2022/08/04 06:22:00;;;;;;;8.77;4.00;;;;;;;28.96;39.10;100872.00;5057559;28;20044;-68
2022/08/04 06:24:28;;;;;;;9.32;4.10;;;;;;;29.10;38.43;100877.47;5049225;28;20041;-67
2022/08/04 06:26:56;;;;;;;11.52;4.85;;;;;;;29.28;39.14;100873.28;5066230;28;20122;-67
2022/08/04 06:29:27;;;;;;;6.50;4.10;;;;;;;29.40;37.81;100870.88;5061364;28;20041;-67
2022/08/04 06:31:58;;;;;;;8.20;4.20;;;;;;;30.38;36.08;100871.31;5045746;28;20045;-67
2022/08/04 06:34:28;;;;;;;4.50;4.00;;;;;;;30.36;35.27;100872.56;5056923;28;20418;-66
2022/08/04 06:36:56;;;;;;;7.68;3.90;;;;;;;30.59;36.08;100873.06;5060233;28;20404;-67
2022/08/04 06:39:24;;;;;;;5.72;4.18;;;;;;;30.73;35.48;100874.75;5053008;28;20051;-67
2022/08/04 06:41:51;;;;;;;8.45;4.45;;;;;;;31.78;34.00;100874.63;5044639;28;20051;-67
2022/08/04 06:44:19;;;;;;;6.25;3.80;;;;;;;32.02;34.25;100867.66;5047875;28;20102;-68
2022/08/04 06:46:47;;;;;;;8.77;4.18;;;;;;;32.33;32.76;100873.16;5066878;28;20098;-70
2022/08/04 06:49:14;;;;;;;5.10;3.75;;;;;;;32.24;32.80;100871.75;5048636;28;20492;-68
2022/08/04 06:51:42;;;;;;;5.32;3.60;;;;;;;32.34;31.12;100865.84;5067802;28;20579;-66
2022/08/04 06:54:09;;;;;;;4.22;3.63;;;;;;;33.39;30.51;100864.19;5066964;28;20064;-68
2022/08/04 06:56:38;;;;;;;6.38;3.30;;;;;;;32.26;30.98;100871.53;5060389;28;20075;-68
2022/08/04 06:59:06;;;;;;;5.32;3.70;;;;;;;32.40;30.62;100862.28;5059912;28;20465;-67
2022/08/04 07:01:36;;;;;;;5.60;3.53;;;;;;;32.77;30.40;100866.84;5058103;28;20041;-68
2022/08/04 07:04:03;;;;;;;4.95;3.45;;;;;;;33.60;29.20;100858.31;5045915;28;20411;-68
2022/08/04 07:06:30;;;;;;;5.65;3.30;;;;;;;34.66;28.45;100858.63;5058518;28;20099;-68
2022/08/04 07:08:58;;;;;;;10.10;3.10;;;;;;;34.88;27.59;100862.44;5059636;28;20072;-67
2022/08/04 07:11:25;;;;;;;4.85;3.40;;;;;;;35.22;27.50;100849.09;5057879;28;20061;-67
2022/08/04 07:13:52;;;;;;;8.40;3.65;;;;;;;35.30;27.47;100857.72;5048321;28;20045;-66
2022/08/04 07:16:20;;;;;;;9.15;3.28;;;;;;;35.42;27.65;100855.81;5055681;28;20044;-66
2022/08/04 07:18:47;;;;;;;4.88;3.10;;;;;;;35.79;25.68;100850.06;5059615;28;20091;-66
2022/08/04 07:21:20;;;;;;;6.90;3.28;;;;;;;34.95;27.05;100849.53;5055359;28;20111;-66
2022/08/04 07:23:47;;;;;;;3.92;2.83;;;;;;;35.37;24.75;100847.50;5056623;28;20049;-66
2022/08/04 07:26:16;;;;;;;7.57;3.28;;;;;;;34.99;27.03;100856.16;5077035;28;20530;-65
2022/08/04 07:28:42;;;;;;;5.57;3.03;;;;;;;34.80;26.82;100856.50;5077457;28;20048;-66
2022/08/04 07:31:13;;;;;;;3.95;2.70;;;;;;;34.63;27.69;100850.88;5079069;28;20049;-66
2022/08/04 07:33:42;;;;;;;4.30;3.10;;;;;;;35.31;25.70;100850.38;5083442;28;20074;-66
2022/08/04 07:36:08;;;;;;;8.63;3.13;;;;;;;36.18;24.83;100838.28;5079035;28;20483;-66
2022/08/04 07:38:35;;;;;;;8.25;3.00;;;;;;;35.43;26.38;100849.31;5058969;28;20053;-67
2022/08/04 07:41:02;;;;;;;8.93;3.15;;;;;;;35.29;25.23;100849.78;5060129;28;20102;-66
2022/08/04 07:43:31;;;;;;;8.07;2.90;;;;;;;34.08;26.83;100855.63;5058842;28;20052;-66
2022/08/04 07:45:57;;;;;;;6.90;2.92;;;;;;;34.80;28.49;100851.88;5048333;28;20045;-67
2022/08/04 07:48:24;;;;;;;3.75;2.70;;;;;;;35.33;26.55;100849.06;5051790;28;20036;-67
2022/08/04 07:50:51;;;;;;;8.75;3.20;;;;;;;36.41;24.37;100840.06;5066130;28;20048;-67
2022/08/04 07:53:18;;;;;;;8.45;2.60;;;;;;;36.84;22.91;100843.06;5065838;28;20053;-68
2022/08/04 07:55:46;;;;;;;12.00;2.95;;;;;;;36.45;23.96;100846.72;5067721;28;20098;-68
2022/08/04 07:58:12;;;;;;;9.13;2.90;;;;;;;37.05;23.15;100845.03;5066410;28;20123;-69
2022/08/04 08:00:40;;;;;;;6.47;2.60;;;;;;;37.41;22.50;100851.00;5053150;28;20135;-68
2022/08/04 08:03:07;;;;;;;4.72;2.70;;;;;;;37.42;21.65;100848.03;5047134;28;20090;-68
2022/08/04 08:05:34;;;;;;;13.77;2.78;;;;;;;36.23;21.39;100840.31;5054110;28;20129;-68
2022/08/04 08:08:02;;;;;;;4.72;2.80;;;;;;;36.37;22.05;100831.56;5064676;28;20048;-69
2022/08/04 08:10:28;;;;;;;2.83;2.42;;;;;;;36.08;22.74;100832.63;5062904;28;20040;-69
2022/08/04 08:12:55;;;;;;;7.03;2.80;;;;;;;36.64;23.18;100841.88;5064721;28;20109;-69
2022/08/04 08:15:22;;;;;;;3.95;2.60;;;;;;;37.08;24.67;100837.41;5069697;28;20110;-69
2022/08/04 08:17:50;;;;;;;3.25;2.63;;;;;;;36.61;22.34;100837.75;5047441;28;20098;-69
2022/08/04 08:20:17;;;;;;;5.20;2.80;;;;;;;37.05;23.14;100827.81;5046368;28;20099;-69
2022/08/04 08:22:43;;;;;;;4.93;2.60;;;;;;;37.56;22.28;100834.00;5045962;28;20550;-69
2022/08/04 08:25:11;;;;;;;4.93;2.80;;;;;;;37.85;22.83;100838.16;5064387;28;20048;-69
2022/08/04 08:27:38;;;;;;;5.30;2.78;;;;;;;38.03;21.58;100824.16;5062462;28;20459;-68
2022/08/04 08:30:05;;;;;;;7.55;2.60;;;;;;;38.07;21.40;100814.34;5053528;28;20053;-68
2022/08/04 08:32:32;;;;;;;5.03;2.70;;;;;;;38.65;20.47;100821.78;5054026;28;20094;-68
2022/08/04 08:35:01;;;;;;;5.47;2.38;;;;;;;38.33;20.46;100820.91;5059015;28;20040;-69
2022/08/04 08:37:34;;;;;;;6.00;2.88;;;;;;;39.15;19.95;100821.31;5063336;28;20048;-69
2022/08/04 08:40:22;;;;;;;5.10;2.60;;;;;;;39.16;19.80;100812.00;5057455;28;20048;-69
2022/08/04 08:43:10;;;;;;;7.55;2.75;;;;;;;39.27;19.13;100808.25;5047675;28;20098;-70
2022/08/04 08:45:59;;;;;;;8.23;2.40;;;;;;;39.42;20.11;100805.59;5056772;28;20037;-71
2022/08/04 08:48:56;;;;;;;6.03;2.47;;;;;;;39.94;18.48;100801.09;5046439;28;20451;-70
2022/08/04 08:51:38;;;;;;;4.75;2.42;;;;;;;38.39;20.38;100801.56;5046607;28;20408;-71
2022/08/04 08:54:40;;;;;;;6.63;2.65;;;;;;;37.68;20.74;100807.34;5046412;28;20049;-71
2022/08/04 08:57:25;;;;;;;4.38;2.47;;;;;;;37.90;20.01;100798.00;5052189;28;20522;-71
2022/08/04 09:00:04;;;;;;;4.38;2.80;;;;;;;38.01;19.86;100801.72;5061570;28;20049;-71
2022/08/04 09:03:09;;;;;;;5.43;2.50;;;;;;;38.15;19.56;100802.94;5064424;28;20045;-70
2022/08/04 09:05:54;;;;;;;6.63;2.22;;;;;;;37.81;19.15;100806.91;5063460;28;20048;-70
2022/08/04 09:08:35;;;;;;;7.25;2.53;;;;;;;37.44;19.94;100799.34;5061192;28;20055;-70
2022/08/04 09:11:06;;;;;;;;;;;;;;;37.58;21.05;100799.00;5045121;28;20091;-71
2022/08/04 09:13:36;;;;;;;7.45;2.10;;;;;;;39.00;18.78;100803.94;5047841;28;19920;-71
2022/08/04 09:16:15;;;;;;;6.38;2.50;;;;;;;37.76;21.00;100804.16;5066436;28;20048;-70
2022/08/04 09:18:47;;;;;;;10.60;2.42;;;;;;;38.74;23.49;100791.94;5065810;28;20450;-70
2022/08/04 09:21:18;;;;;;;2.90;2.22;;;;;;;38.22;19.00;100792.59;5066284;28;20040;-70
2022/08/04 09:23:51;;;;;;;5.45;2.08;;;;;;;39.14;21.84;100803.19;5065665;28;20451;-70
2022/08/04 09:26:21;;;;;;;2.88;2.03;;;;;;;39.82;18.77;100796.69;5068754;28;20052;-70
2022/08/04 09:28:53;;;;;;;4.70;2.20;;;;;;;38.10;20.17;100797.44;5065075;28;20074;-70
2022/08/04 09:31:24;;;;;;;8.70;2.40;;;;;;;38.67;20.59;100802.31;5053173;28;20051;-70
2022/08/04 09:33:59;;;;;;;4.10;2.20;;;;;;;37.99;19.59;100788.25;5049908;28;20060;-70
2022/08/04 09:36:32;;;;;;;6.43;1.90;;;;;;;38.92;21.08;100786.06;5062207;28;20053;-70
2022/08/04 09:39:09;;;;;;;9.52;2.25;;;;;;;39.46;18.15;100792.16;5068586;28;20117;-70
2022/08/04 09:41:41;;;;;;;4.55;2.30;;;;;;;39.13;19.51;100790.59;5064323;28;20051;-70
2022/08/04 09:44:18;;;;;;;7.55;2.33;;;;;;;40.05;18.10;100786.28;5048862;28;20143;-70
2022/08/04 09:46:51;;;;;;;7.15;2.45;;;;;;;40.42;19.36;100778.66;5058803;28;20040;-70
2022/08/04 09:49:23;;;;;;;5.82;2.13;;;;;;;40.79;17.43;100781.94;5069206;28;20099;-70
2022/08/04 09:52:00;;;;;;;6.15;2.13;;;;;;;40.69;16.84;100781.94;5068018;28;20086;-70
2022/08/04 09:54:37;;;;;;;6.40;2.05;;;;;;;41.12;18.64;100777.75;5048111;28;20049;-70
2022/08/04 09:57:10;;;;;;;5.13;2.30;;;;;;;39.43;18.15;100782.50;5058970;28;20048;-70
2022/08/04 09:59:43;;;;;;;4.05;2.05;;;;;;;38.98;18.14;100771.31;5068445;28;20045;-70
2022/08/04 10:02:13;;;;;;;2.33;2.00;;;;;;;39.28;18.67;100770.69;5048736;28;20650;-70
2022/08/04 10:04:42;;;;;;;5.65;2.30;;;;;;;39.83;19.73;100770.88;5047262;28;20040;-70
2022/08/04 10:07:25;;;;;;;3.80;2.20;;;;;;;40.08;20.06;100769.25;5057481;28;20101;-71
2022/08/04 10:10:14;;;;;;;6.15;2.15;;;;;;;40.41;18.61;100765.19;5057213;28;20128;-70
2022/08/04 10:12:49;;;;;;;3.75;2.10;;;;;;;39.85;17.76;100762.38;5047427;28;20115;-68
2022/08/04 10:15:19;;;;;;;6.60;2.22;;;;;;;40.26;19.02;100768.75;5065695;28;20101;-68
2022/08/04 10:18:03;;;;;;;5.10;2.10;;;;;;;39.22;18.31;100767.03;5067404;28;20041;-68
2022/08/04 10:20:46;;;;;;;8.48;2.40;;;;;;;38.63;18.80;100757.34;5057142;28;20041;-69
2022/08/04 10:23:20;;;;;;;4.63;2.13;;;;;;;38.36;20.75;100760.16;5062918;28;20549;-68
2022/08/04 10:26:01;;;;;;;5.45;2.40;;;;;;;38.27;21.11;100770.75;5067579;28;20059;-68
2022/08/04 10:28:30;;;;;;;4.40;2.38;;;;;;;38.87;18.67;100755.91;5066366;28;20044;-67
2022/08/04 10:31:00;;;;;;;3.25;2.25;;;;;;;38.33;19.80;100753.25;5054232;28;20049;-69
2022/08/04 10:33:31;;;;;;;3.80;2.30;;;;;;;38.88;19.16;100757.53;5046175;28;20061;-68
2022/08/04 10:36:01;;;;;;;4.03;2.25;;;;;;;39.50;18.99;100741.13;5046356;28;20044;-69
2022/08/04 10:38:30;;;;;;;4.53;2.30;;;;;;;39.30;19.46;100750.09;5067728;28;20057;-68
2022/08/04 10:41:05;;;;;;;4.40;2.05;;;;;;;38.31;20.76;100743.66;5064959;28;20233;-68
2022/08/04 10:43:42;;;;;;;3.50;2.53;;;;;;;39.03;21.56;100741.16;5064259;28;20566;-68
2022/08/04 10:46:12;;;;;;;4.78;2.35;;;;;;;39.34;18.33;100743.00;5066026;28;20044;-68
2022/08/04 10:48:46;;;;;;;7.15;2.35;;;;;;;39.50;19.44;100738.38;5064971;28;20041;-68
2022/08/04 10:51:21;;;;;;;5.78;2.17;;;;;;;40.29;18.58;100733.31;5065496;28;20625;-68
2022/08/04 10:53:54;;;;;;;3.53;1.95;;;;;;;39.85;18.53;100729.41;5065629;28;20109;-69
2022/08/04 10:56:31;;;;;;;4.63;2.13;;;;;;;40.24;18.39;100725.09;5066780;28;20045;-68
2022/08/04 10:59:03;;;;;;;6.22;2.20;;;;;;;40.53;17.52;100725.34;5066266;28;20040;-68
2022/08/04 11:01:36;;;;;;;;;;;;;;;40.44;18.85;100723.41;5068051;28;20745;-69
2022/08/04 11:04:08;;;;;;;6.88;2.05;;;;;;;39.94;17.69;100718.72;5065227;28;19924;-68
2022/08/04 11:06:36;;;;;;;3.35;1.90;;;;;;;39.19;18.94;100720.97;5065042;28;20040;-68
2022/08/04 11:09:04;;;;;;;2.80;1.80;;;;;;;39.39;17.60;100718.34;5064069;28;20513;-68
2022/08/04 11:11:35;;;;;;;2.80;2.00;;;;;;;39.74;18.50;100708.53;5065312;28;20692;-68
2022/08/04 11:14:04;;;;;;;4.13;2.00;;;;;;;40.25;17.32;100704.75;5063462;28;20458;-68
2022/08/04 11:16:38;;;;;;;5.00;1.80;;;;;;;39.02;17.76;100716.78;5064788;28;20049;-68
2022/08/04 11:19:17;;;;;;;6.40;1.90;;;;;;;39.66;18.83;100711.78;5064572;28;20523;-67
2022/08/04 11:21:53;;;;;;;7.30;2.22;;;;;;;40.47;17.22;100712.69;5064866;28;20044;-67
2022/08/04 11:24:26;;;;;;;4.28;2.10;;;;;;;40.33;17.07;100706.94;5065035;28;20415;-68
2022/08/04 11:26:58;;;;;;;2.63;2.10;;;;;;;39.63;17.40;100696.69;5065454;28;20126;-68
2022/08/04 11:29:29;;;;;;;5.60;2.28;;;;;;;38.95;17.99;100717.81;5065925;28;20045;-67
2022/08/04 11:32:00;;;;;;;5.00;1.95;;;;;;;39.72;18.68;100699.75;5065924;28;20056;-67
2022/08/04 11:34:27;;;;;;;3.90;2.00;;;;;;;40.54;18.14;100701.41;5050178;28;20049;-67
2022/08/04 11:37:02;;;;;;;3.40;2.00;;;;;;;39.93;17.08;100701.41;5052218;28;20484;-67
2022/08/04 11:39:33;;;;;;;3.00;2.13;;;;;;;40.58;17.38;100702.53;5058870;28;20049;-67
2022/08/04 11:42:14;;;;;;;3.75;2.20;;;;;;;41.09;18.16;100687.56;5049378;28;20108;-67
2022/08/04 11:44:46;;;;;;;4.68;2.38;;;;;;;40.73;16.50;100686.81;5060161;28;20133;-68
2022/08/04 11:47:21;;;;;;;6.50;2.40;;;;;;;40.04;18.18;100689.34;5065065;28;20049;-68
2022/08/04 11:49:55;;;;;;;3.83;2.30;;;;;;;40.70;19.37;100692.88;5065438;28;20049;-69
2022/08/04 11:52:24;;;;;;;6.65;1.88;;;;;;;40.10;19.64;100690.97;5065225;28;20048;-68
2022/08/04 11:54:51;;;;;;;3.10;2.20;;;;;;;39.61;17.92;100696.16;5063761;28;20047;-68
2022/08/04 11:57:19;;;;;;;4.47;2.00;;;;;;;39.89;19.29;100686.59;5051087;28;20373;-68
2022/08/04 11:59:49;;;;;;;3.75;1.98;;;;;;;39.28;18.96;100682.91;5062983;28;20040;-71
2022/08/04 12:02:33;;;;;;;4.65;2.20;;;;;;;39.47;19.26;100689.50;5064675;28;20106;-68
2022/08/04 12:05:01;;;;;;;3.55;2.05;;;;;;;39.01;19.16;100688.53;5065599;28;20078;-68
2022/08/04 12:07:41;;;;;;;4.35;2.25;;;;;;;39.17;18.63;100676.53;5064330;28;20120;-68